Terminal Aerodrome Forecast
Issued by NWS Charleston, WV

Current Version | Previous Version | Text Only | Print | Product List | Glossary Off
Versions: 1 2 3 4 5 6 7 8 9 10 11 12 13 14 15 16 17 18 19 20 21 22

876
FTUS41 KRLX 032339
TAFHTS
TAF
KHTS 032339Z 0400/0424 VRB03KT P6SM BKN045
     FM040300 00000KT P6SM OVC150
     FM041200 10005KT P6SM OVC040=

USA.gov is the U.S. government's official web portal to all federal, state and local government web resources and services.